createdAt,value
2018-05-24T00:00:08.760Z,18.18
2018-05-24T00:02:37.147Z,18.06
2018-05-24T00:05:05.470Z,17.98
2018-05-24T00:07:33.832Z,17.82
2018-05-24T00:10:02.984Z,17.90
2018-05-24T00:12:31.300Z,17.72
2018-05-24T00:15:00.402Z,18.05
2018-05-24T00:17:29.522Z,18.11
2018-05-24T00:19:57.856Z,17.99
2018-05-24T00:22:26.208Z,18.10
2018-05-24T00:24:54.542Z,18.16
2018-05-24T00:27:22.920Z,18.21
2018-05-24T00:29:51.280Z,18.17
2018-05-24T00:32:20.358Z,18.31
2018-05-24T00:34:48.691Z,18.27
2018-05-24T00:37:17.049Z,18.21
2018-05-24T00:39:45.357Z,18.17
2018-05-24T00:42:13.751Z,18.18
2018-05-24T00:44:42.125Z,18.15
2018-05-24T00:47:10.459Z,18.13
2018-05-24T00:49:38.923Z,18.10
2018-05-24T00:52:08.054Z,18.14
2018-05-24T00:54:36.436Z,18.19
2018-05-24T00:57:05.522Z,18.11
2018-05-24T00:59:33.837Z,18.02
2018-05-24T01:02:02.185Z,18.08
2018-05-24T01:04:30.702Z,18.02
2018-05-24T01:06:59.897Z,18.05
2018-05-24T01:09:28.374Z,17.90
2018-05-24T01:11:56.810Z,17.83
2018-05-24T01:14:25.536Z,17.88
2018-05-24T01:16:53.896Z,17.75
2018-05-24T01:19:22.335Z,17.53
2018-05-24T01:21:50.663Z,17.43
2018-05-24T01:24:20.055Z,17.33
2018-05-24T01:26:49.183Z,17.50
2018-05-24T01:29:18.300Z,17.44
2018-05-24T01:31:48.418Z,17.32
2018-05-24T01:34:21.092Z,17.32
2018-05-24T01:39:57.247Z,17.13
2018-05-24T01:42:27.115Z,17.12
2018-05-24T01:44:55.413Z,17.13
2018-05-24T01:47:24.775Z,16.95
2018-05-24T01:49:53.155Z,16.80
2018-05-24T01:52:22.239Z,16.87
2018-05-24T01:54:52.570Z,16.82
2018-05-24T01:57:22.018Z,16.87
2018-05-24T01:59:50.427Z,16.75
2018-05-24T02:02:19.558Z,16.69
2018-05-24T02:04:48.185Z,16.56
2018-05-24T02:07:16.788Z,16.52
2018-05-24T02:09:45.307Z,16.58
2018-05-24T02:12:14.533Z,16.62
2018-05-24T02:14:43.613Z,16.59
2018-05-24T02:17:12.850Z,16.58
2018-05-24T02:19:41.149Z,16.88
2018-05-24T02:22:10.282Z,16.73
2018-05-24T02:24:38.651Z,16.54
2018-05-24T02:27:06.961Z,16.50
2018-05-24T02:29:35.615Z,16.50
2018-05-24T02:32:03.983Z,16.47
2018-05-24T02:34:32.358Z,16.46
2018-05-24T02:37:00.855Z,16.42
2018-05-24T02:39:29.207Z,16.37
2018-05-24T02:41:58.359Z,16.52
2018-05-24T02:44:26.726Z,16.54
2018-05-24T02:46:55.081Z,16.41
2018-05-24T02:49:23.505Z,16.48
2018-05-24T02:51:51.858Z,16.40
2018-05-24T02:54:20.202Z,16.31
2018-05-24T02:56:48.583Z,16.34
2018-05-24T02:59:18.575Z,16.40
2018-05-24T03:01:47.743Z,16.40
2018-05-24T03:04:16.087Z,16.25
2018-05-24T03:06:44.402Z,16.19
2018-05-24T03:09:12.778Z,16.17
2018-05-24T03:11:41.115Z,16.15
2018-05-24T03:14:09.489Z,16.12
2018-05-24T03:16:37.884Z,16.09
2018-05-24T03:19:06.219Z,16.10
2018-05-24T03:21:35.334Z,16.10
2018-05-24T03:24:03.719Z,16.12
2018-05-24T03:26:32.043Z,16.14
2018-05-24T03:29:00.398Z,16.09
2018-05-24T03:31:28.763Z,16.10
2018-05-24T03:33:57.141Z,16.09
2018-05-24T03:36:25.474Z,16.07
2018-05-24T03:38:53.788Z,16.05
2018-05-24T03:41:22.171Z,16.06
2018-05-24T03:43:50.508Z,16.05
2018-05-24T03:46:18.834Z,16.08
2018-05-24T03:48:47.198Z,16.05
2018-05-24T03:51:15.594Z,16.08
2018-05-24T03:53:43.956Z,16.12
2018-05-24T03:56:12.293Z,16.17
2018-05-24T03:58:40.670Z,16.19
2018-05-24T04:01:27.021Z,16.18
2018-05-24T04:03:56.308Z,16.18
2018-05-24T04:06:24.741Z,16.24
2018-05-24T04:08:53.079Z,16.25
2018-05-24T04:11:21.461Z,16.29
2018-05-24T04:13:49.789Z,16.34
2018-05-24T04:16:18.982Z,16.35
2018-05-24T04:18:47.489Z,16.35
2018-05-24T04:21:15.829Z,16.38
2018-05-24T04:23:44.172Z,16.43
2018-05-24T04:26:12.542Z,16.39
2018-05-24T04:28:40.869Z,16.48
2018-05-24T04:31:09.212Z,16.50
2018-05-24T04:33:37.540Z,16.71
2018-05-24T04:36:06.660Z,16.83
2018-05-24T04:38:35.018Z,16.64
2018-05-24T04:41:04.149Z,16.74
2018-05-24T04:43:32.512Z,16.93
2018-05-24T04:46:00.841Z,16.87
2018-05-24T04:48:29.595Z,16.91
2018-05-24T04:50:57.974Z,16.84
2018-05-24T04:53:26.353Z,16.80
2018-05-24T04:55:54.686Z,16.97
2018-05-24T04:58:24.106Z,17.06
2018-05-24T05:00:52.980Z,17.47
2018-05-24T05:03:22.113Z,17.55
2018-05-24T05:05:51.210Z,17.51
2018-05-24T05:08:19.554Z,17.67
2018-05-24T05:10:48.678Z,17.62
2018-05-24T05:13:17.055Z,18.22
2018-05-24T05:15:45.422Z,18.68
2018-05-24T05:18:14.531Z,19.43
2018-05-24T05:20:42.880Z,19.10
2018-05-24T05:23:11.418Z,18.90
2018-05-24T05:25:39.646Z,18.55
2018-05-24T05:28:08.082Z,18.76
2018-05-24T05:30:36.469Z,18.41
2018-05-24T05:33:04.829Z,19.21
2018-05-24T05:35:33.169Z,19.93
2018-05-24T05:38:01.531Z,20.76
2018-05-24T05:40:29.860Z,21.25
2018-05-24T05:42:58.201Z,21.46
2018-05-24T05:45:26.559Z,20.92
2018-05-24T05:47:55.680Z,20.13
2018-05-24T05:50:24.038Z,19.90
2018-05-24T05:52:52.388Z,19.77
2018-05-24T05:55:21.489Z,20.56
2018-05-24T05:57:49.839Z,20.10
2018-05-24T06:00:18.197Z,19.40
2018-05-24T06:02:46.516Z,19.98
2018-05-24T06:05:15.641Z,20.52
2018-05-24T06:07:43.965Z,20.46
2018-05-24T06:10:12.304Z,21.21
2018-05-24T06:12:40.665Z,21.57
2018-05-24T06:15:09.758Z,19.76
2018-05-24T06:17:38.866Z,20.93
2018-05-24T06:20:07.238Z,21.17
2018-05-24T06:22:35.614Z,20.63
2018-05-24T06:25:03.945Z,19.72
2018-05-24T06:27:32.273Z,20.00
2018-05-24T06:30:00.644Z,19.99
2018-05-24T06:32:28.980Z,20.19
2018-05-24T06:34:57.360Z,20.40
2018-05-24T06:37:25.715Z,21.15
2018-05-24T06:39:54.040Z,21.01
2018-05-24T06:42:23.181Z,21.46
2018-05-24T06:44:51.553Z,20.70
2018-05-24T06:47:19.889Z,20.35
2018-05-24T06:49:49.031Z,20.31
2018-05-24T06:52:17.356Z,21.18
2018-05-24T06:54:45.700Z,20.43
2018-05-24T06:57:14.048Z,20.20
2018-05-24T06:59:42.372Z,20.26
2018-05-24T07:02:10.777Z,20.92
2018-05-24T07:04:39.910Z,20.65
2018-05-24T07:07:09.035Z,20.90
2018-05-24T07:09:37.368Z,21.10
2018-05-24T07:12:05.748Z,21.51
2018-05-24T07:14:34.080Z,20.89
2018-05-24T07:17:02.454Z,20.46
2018-05-24T07:19:30.775Z,20.77
2018-05-24T07:21:59.141Z,20.68
2018-05-24T07:24:27.481Z,20.93
2018-05-24T07:26:55.828Z,21.04
2018-05-24T07:29:24.177Z,21.48
2018-05-24T07:31:53.329Z,21.82
2018-05-24T07:34:21.661Z,21.66
2018-05-24T07:36:50.026Z,21.64
2018-05-24T07:39:18.366Z,21.68
2018-05-24T07:41:46.725Z,21.45
2018-05-24T07:44:15.037Z,21.52
2018-05-24T07:46:43.510Z,21.46
2018-05-24T07:49:11.887Z,21.76
2018-05-24T07:51:40.217Z,21.64
2018-05-24T07:54:08.587Z,21.76
2018-05-24T07:56:36.919Z,21.73
2018-05-24T07:59:05.252Z,21.67
2018-05-24T08:01:33.740Z,21.96
2018-05-24T08:04:02.035Z,22.14
2018-05-24T08:06:30.375Z,22.26
2018-05-24T08:08:58.734Z,22.30
2018-05-24T08:11:27.857Z,22.26
2018-05-24T08:13:56.236Z,21.99
2018-05-24T08:16:24.581Z,21.97
2018-05-24T08:18:53.728Z,21.91
2018-05-24T08:21:22.057Z,22.14
2018-05-24T08:23:51.193Z,21.99
2018-05-24T08:26:20.300Z,21.94
2018-05-24T08:28:48.680Z,22.12
2018-05-24T08:31:17.021Z,21.94
2018-05-24T08:33:45.365Z,22.27
2018-05-24T08:36:13.695Z,22.62
2018-05-24T08:38:42.048Z,22.83
2018-05-24T08:41:10.397Z,23.08
2018-05-24T08:43:38.727Z,23.45
2018-05-24T08:46:07.096Z,23.61
2018-05-24T08:48:35.468Z,23.54
2018-05-24T08:51:03.787Z,23.61
2018-05-24T08:53:32.138Z,22.91
2018-05-24T08:56:00.476Z,23.00
2018-05-24T08:58:29.620Z,23.46
2018-05-24T09:00:57.954Z,23.61
2018-05-24T09:03:27.081Z,23.71
2018-05-24T09:05:55.431Z,23.60
2018-05-24T09:08:24.564Z,23.84
2018-05-24T09:10:52.936Z,23.70
2018-05-24T09:13:21.320Z,23.64
2018-05-24T09:15:49.672Z,23.85
2018-05-24T09:18:18.022Z,23.65
2018-05-24T09:20:47.164Z,23.61
2018-05-24T09:23:15.554Z,23.52
2018-05-24T09:25:43.916Z,23.61
2018-05-24T09:28:12.237Z,23.52
2018-05-24T09:30:40.620Z,23.89
2018-05-24T09:33:08.968Z,23.58
2018-05-24T09:35:37.336Z,23.54
2018-05-24T09:38:05.655Z,23.76
2018-05-24T09:40:34.012Z,23.78
2018-05-24T09:43:02.391Z,23.89
2018-05-24T09:45:30.762Z,23.85
2018-05-24T09:47:59.090Z,24.03
2018-05-24T09:50:28.186Z,23.98
2018-05-24T09:52:57.310Z,24.05
2018-05-24T09:55:25.730Z,23.79
2018-05-24T09:57:54.015Z,23.90
2018-05-24T10:00:23.167Z,23.96
2018-05-24T10:02:51.539Z,23.78
2018-05-24T10:05:19.906Z,23.71
2018-05-24T10:07:48.295Z,23.70
2018-05-24T10:10:16.665Z,23.63
2018-05-24T10:12:45.027Z,23.61
2018-05-24T10:15:13.412Z,23.43
2018-05-24T10:17:41.769Z,23.38
2018-05-24T10:20:10.888Z,23.59
2018-05-24T10:22:39.251Z,23.87
2018-05-24T10:25:08.386Z,23.92
2018-05-24T10:27:36.722Z,23.84
2018-05-24T10:30:05.851Z,23.70
2018-05-24T10:32:34.181Z,23.79
2018-05-24T10:35:03.336Z,23.78
2018-05-24T10:37:31.668Z,23.79
2018-05-24T10:40:00.819Z,24.07
2018-05-24T10:42:29.163Z,23.91
2018-05-24T10:44:57.553Z,24.05
2018-05-24T10:47:26.797Z,24.20
2018-05-24T10:49:55.155Z,24.48
2018-05-24T10:52:25.079Z,24.36
2018-05-24T10:54:53.459Z,24.20
2018-05-24T10:57:22.390Z,24.12
2018-05-24T10:59:51.119Z,24.16
2018-05-24T11:02:20.951Z,23.96
2018-05-24T11:04:51.679Z,24.00
2018-05-24T11:07:20.514Z,24.13
2018-05-24T11:09:50.074Z,24.07
2018-05-24T11:12:19.227Z,24.09
2018-05-24T11:14:47.546Z,24.12
2018-05-24T11:17:16.719Z,24.20
2018-05-24T11:19:45.424Z,24.36
2018-05-24T11:22:16.011Z,24.21
2018-05-24T11:24:44.406Z,24.19
2018-05-24T11:27:14.268Z,24.67
2018-05-24T11:29:42.622Z,24.50
2018-05-24T11:32:10.995Z,24.38
2018-05-24T11:34:39.350Z,24.33
2018-05-24T11:37:09.536Z,24.28
2018-05-24T11:39:37.848Z,24.36
2018-05-24T11:42:06.282Z,24.29
2018-05-24T11:44:36.264Z,24.26
2018-05-24T11:47:05.868Z,24.19
2018-05-24T11:49:34.294Z,24.08
2018-05-24T11:52:03.448Z,24.32
2018-05-24T11:54:32.504Z,24.49
2018-05-24T11:57:00.868Z,24.46
2018-05-24T11:59:29.952Z,24.26
2018-05-24T12:01:59.842Z,24.43
2018-05-24T12:04:28.204Z,24.57
2018-05-24T12:06:56.570Z,24.55
2018-05-24T12:09:24.928Z,24.29
2018-05-24T12:11:53.279Z,24.34
2018-05-24T12:14:22.384Z,24.52
2018-05-24T12:16:50.757Z,24.43
2018-05-24T12:19:19.870Z,24.33
2018-05-24T12:21:50.473Z,24.32
2018-05-24T12:24:19.568Z,24.26
2018-05-24T12:26:47.925Z,24.15
2018-05-24T12:29:16.335Z,24.41
2018-05-24T12:31:45.452Z,24.60
2018-05-24T12:34:13.777Z,24.79
2018-05-24T12:36:42.107Z,24.88
2018-05-24T12:39:10.456Z,25.06
2018-05-24T12:41:39.527Z,24.96
2018-05-24T12:44:07.896Z,25.12
2018-05-24T12:46:36.258Z,25.16
2018-05-24T12:49:04.654Z,25.12
2018-05-24T12:51:32.956Z,25.29
2018-05-24T12:54:02.077Z,25.12
2018-05-24T12:56:30.441Z,25.08
2018-05-24T12:58:59.537Z,25.37
2018-05-24T13:01:28.693Z,25.67
2018-05-24T13:03:57.045Z,25.56
2018-05-24T13:06:25.392Z,25.86
2018-05-24T13:08:54.207Z,25.37
2018-05-24T13:11:22.550Z,25.56
2018-05-24T13:13:51.644Z,25.83
2018-05-24T13:16:20.768Z,25.82
2018-05-24T13:18:49.145Z,26.15
2018-05-24T13:21:17.473Z,26.23
2018-05-24T13:23:45.831Z,26.08
2018-05-24T13:26:14.196Z,25.72
2018-05-24T13:28:42.563Z,25.55
2018-05-24T13:31:10.907Z,25.49
2018-05-24T13:33:40.049Z,25.55
2018-05-24T13:36:08.388Z,25.64
2018-05-24T13:38:37.489Z,25.64
2018-05-24T13:41:05.841Z,25.69
2018-05-24T13:43:34.168Z,25.91
2018-05-24T13:46:02.556Z,26.10
2018-05-24T13:48:30.880Z,26.21
2018-05-24T13:51:00.006Z,26.32
2018-05-24T13:53:28.311Z,26.34
2018-05-24T13:55:56.639Z,26.38
2018-05-24T13:58:25.711Z,26.07
2018-05-24T14:00:54.086Z,26.00
2018-05-24T14:03:22.435Z,25.86
2018-05-24T14:05:50.799Z,25.99
2018-05-24T14:08:19.126Z,26.21
2018-05-24T14:10:47.473Z,25.51
2018-05-24T14:13:16.195Z,25.48
2018-05-24T14:15:44.556Z,25.22
2018-05-24T14:18:12.872Z,24.85
2018-05-24T14:20:41.995Z,25.17
2018-05-24T14:23:10.347Z,25.59
2018-05-24T14:25:38.689Z,25.68
2018-05-24T14:28:07.072Z,25.53
2018-05-24T14:30:35.503Z,25.63
2018-05-24T14:33:03.867Z,25.41
2018-05-24T14:35:32.201Z,25.51
2018-05-24T14:38:00.583Z,25.74
2018-05-24T14:40:28.933Z,25.85
2018-05-24T14:42:57.281Z,25.62
2018-05-24T14:45:26.125Z,25.71
2018-05-24T14:47:57.432Z,25.75
2018-05-24T14:50:25.805Z,25.77
2018-05-24T14:52:54.140Z,25.69
2018-05-24T14:55:22.585Z,25.58
2018-05-24T14:57:50.960Z,25.62
2018-05-24T15:00:19.348Z,25.62
2018-05-24T15:02:47.721Z,25.81
2018-05-24T15:05:16.122Z,25.71
2018-05-24T15:07:44.475Z,25.19
2018-05-24T15:10:12.828Z,24.80
2018-05-24T15:12:41.188Z,25.05
2018-05-24T15:15:09.558Z,25.62
2018-05-24T15:17:38.689Z,25.69
2018-05-24T15:20:07.458Z,25.32
2018-05-24T15:22:36.214Z,25.48
2018-05-24T15:25:05.365Z,25.68
2018-05-24T15:27:34.147Z,25.58
2018-05-24T15:30:02.509Z,25.74
2018-05-24T15:32:30.883Z,25.86
2018-05-24T15:34:59.223Z,25.76
2018-05-24T15:37:27.592Z,25.81
2018-05-24T15:39:55.927Z,25.76
2018-05-24T15:42:25.073Z,25.47
2018-05-24T15:44:53.412Z,25.52
2018-05-24T15:47:21.730Z,25.33
2018-05-24T15:49:50.092Z,25.38
2018-05-24T15:52:18.462Z,25.32
2018-05-24T15:54:46.786Z,25.20
2018-05-24T15:57:15.123Z,25.26
2018-05-24T15:59:43.501Z,25.31
2018-05-24T16:02:11.814Z,25.34
2018-05-24T16:04:40.188Z,25.26
2018-05-24T16:07:09.274Z,25.17
2018-05-24T16:09:37.620Z,25.27
2018-05-24T16:12:05.967Z,25.30
2018-05-24T16:14:34.361Z,25.30
2018-05-24T16:17:02.726Z,25.24
2018-05-24T16:19:31.072Z,25.29
2018-05-24T16:21:59.412Z,25.54
2018-05-24T16:24:27.736Z,25.44
2018-05-24T16:26:56.101Z,25.54
2018-05-24T16:29:25.240Z,25.49
2018-05-24T16:31:53.603Z,25.49
2018-05-24T16:34:22.010Z,25.59
2018-05-24T16:36:50.362Z,25.58
2018-05-24T16:39:18.705Z,25.71
2018-05-24T16:41:47.949Z,25.52
2018-05-24T16:44:17.684Z,25.44
2018-05-24T16:46:46.064Z,25.47
2018-05-24T16:49:15.395Z,25.45
2018-05-24T16:51:44.565Z,25.29
2018-05-24T16:54:13.114Z,25.29
2018-05-24T16:56:41.493Z,25.35
2018-05-24T16:59:10.785Z,25.37
2018-05-24T17:01:39.681Z,25.24
2018-05-24T17:04:08.189Z,25.21
2018-05-24T17:06:37.393Z,25.14
2018-05-24T17:09:07.577Z,25.08
2018-05-24T17:11:36.060Z,25.11
2018-05-24T17:14:09.973Z,25.09
2018-05-24T17:16:39.276Z,25.08
2018-05-24T17:19:07.780Z,24.97
2018-05-24T17:21:37.773Z,24.96
2018-05-24T17:24:07.676Z,24.70
2018-05-24T17:26:36.262Z,24.70
2018-05-24T17:29:04.796Z,24.52
2018-05-24T17:31:34.935Z,24.28
2018-05-24T17:34:04.222Z,24.23
2018-05-24T17:36:34.383Z,24.26
2018-05-24T17:39:05.356Z,24.24
2018-05-24T17:41:33.747Z,24.11
2018-05-24T17:44:02.369Z,23.99
2018-05-24T17:46:32.061Z,23.95
2018-05-24T17:49:01.282Z,23.93
2018-05-24T17:51:32.117Z,23.78
2018-05-24T17:54:04.607Z,23.65
2018-05-24T17:56:34.384Z,23.57
2018-05-24T17:59:03.785Z,23.53
2018-05-24T18:01:32.961Z,23.48
2018-05-24T18:04:02.927Z,23.39
2018-05-24T18:06:33.472Z,23.29
2018-05-24T18:09:02.039Z,23.22
2018-05-24T18:11:33.419Z,23.12
2018-05-24T18:14:05.469Z,23.03
2018-05-24T18:16:37.704Z,22.94
2018-05-24T18:19:06.537Z,22.82
2018-05-24T18:21:36.811Z,22.77
2018-05-24T18:24:08.212Z,22.75
2018-05-24T18:26:36.753Z,22.67
2018-05-24T18:29:06.794Z,22.54
2018-05-24T18:31:36.028Z,22.46
2018-05-24T18:34:05.956Z,22.38
2018-05-24T18:36:39.881Z,22.36
2018-05-24T18:39:13.549Z,22.34
2018-05-24T18:41:43.020Z,22.17
2018-05-24T18:44:13.781Z,21.96
2018-05-24T18:46:44.000Z,21.83
2018-05-24T18:49:13.481Z,21.98
2018-05-24T18:51:41.999Z,21.74
2018-05-24T18:54:11.675Z,21.57
2018-05-24T18:56:41.063Z,21.34
2018-05-24T18:59:10.266Z,21.26
2018-05-24T19:01:39.997Z,20.07
2018-05-24T19:04:08.611Z,21.06
2018-05-24T19:06:38.323Z,20.91
2018-05-24T19:09:08.598Z,20.74
2018-05-24T19:11:37.012Z,20.76
2018-05-24T19:14:06.969Z,20.81
2018-05-24T19:16:36.180Z,20.74
2018-05-24T19:19:04.573Z,20.74
2018-05-24T19:21:33.015Z,20.79
2018-05-24T19:24:02.268Z,20.94
2018-05-24T19:26:30.639Z,20.90
2018-05-24T19:28:59.027Z,20.71
2018-05-24T19:31:28.151Z,20.52
2018-05-24T19:33:57.249Z,20.51
2018-05-24T19:36:26.771Z,20.56
2018-05-24T19:38:55.221Z,20.58
2018-05-24T19:41:26.026Z,20.44
2018-05-24T19:43:54.431Z,20.41
2018-05-24T19:46:23.605Z,20.65
2018-05-24T19:48:52.013Z,20.45
2018-05-24T19:51:21.183Z,20.17
2018-05-24T19:53:49.546Z,19.93
2018-05-24T19:56:17.958Z,20.17
2018-05-24T19:58:46.415Z,20.26
2018-05-24T20:01:15.865Z,20.35
2018-05-24T20:03:44.982Z,20.29
2018-05-24T20:06:14.818Z,20.22
2018-05-24T20:08:44.550Z,19.51
2018-05-24T20:11:12.984Z,20.07
2018-05-24T20:13:41.338Z,19.75
2018-05-24T20:16:09.981Z,19.93
2018-05-24T20:18:38.308Z,19.86
2018-05-24T20:21:06.704Z,19.73
2018-05-24T20:23:35.046Z,19.78
2018-05-24T20:26:04.140Z,19.58
2018-05-24T20:28:33.290Z,19.68
2018-05-24T20:31:01.665Z,19.65
2018-05-24T20:33:30.005Z,19.69
2018-05-24T20:35:58.381Z,19.62
2018-05-24T20:38:26.747Z,19.52
2018-05-24T20:40:55.881Z,19.42
2018-05-24T20:43:25.214Z,19.23
2018-05-24T20:45:53.571Z,19.19
2018-05-24T20:48:21.941Z,19.13
2018-05-24T20:50:50.311Z,19.19
2018-05-24T20:53:18.645Z,19.14
2018-05-24T20:55:47.081Z,19.08
2018-05-24T20:58:15.411Z,19.13
2018-05-24T21:00:44.553Z,19.13
2018-05-24T21:03:16.248Z,19.18
2018-05-24T21:05:44.612Z,19.04
2018-05-24T21:08:12.998Z,19.04
2018-05-24T21:10:41.401Z,18.97
2018-05-24T21:13:10.136Z,19.04
2018-05-24T21:15:38.514Z,18.97
2018-05-24T21:18:06.840Z,18.96
2018-05-24T21:20:35.988Z,18.89
2018-05-24T21:23:04.302Z,18.79
2018-05-24T21:25:32.677Z,19.04
2018-05-24T21:28:01.944Z,19.02
2018-05-24T21:30:30.599Z,18.93
2018-05-24T21:32:58.863Z,18.80
2018-05-24T21:35:27.984Z,18.73
2018-05-24T21:37:56.345Z,18.69
2018-05-24T21:40:24.695Z,18.49
2018-05-24T21:42:53.023Z,18.54
2018-05-24T21:45:21.404Z,18.53
2018-05-24T21:47:49.733Z,18.52
2018-05-24T21:50:18.811Z,18.54
2018-05-24T21:52:47.190Z,18.63
2018-05-24T21:55:15.517Z,18.52
2018-05-24T21:57:43.893Z,18.38
2018-05-24T22:00:12.209Z,18.44
2018-05-24T22:02:40.559Z,18.31
2018-05-24T22:05:08.921Z,18.35
2018-05-24T22:07:37.301Z,18.32
2018-05-24T22:10:05.653Z,18.44
2018-05-24T22:12:34.801Z,18.36
2018-05-24T22:15:03.136Z,18.36
2018-05-24T22:17:32.215Z,18.19
2018-05-24T22:20:01.349Z,18.17
2018-05-24T22:22:29.689Z,18.14
2018-05-24T22:24:58.841Z,18.28
2018-05-24T22:27:27.203Z,18.20
2018-05-24T22:29:56.725Z,18.19
2018-05-24T22:32:25.069Z,18.19
2018-05-24T22:34:53.427Z,18.35
2018-05-24T22:37:22.529Z,18.02
2018-05-24T22:39:51.665Z,18.03
2018-05-24T22:42:19.975Z,18.01
2018-05-24T22:44:48.467Z,18.08
2018-05-24T22:47:18.435Z,17.95
2018-05-24T22:49:46.814Z,18.05
2018-05-24T22:52:15.173Z,17.80
2018-05-24T22:54:43.540Z,17.62
2018-05-24T22:57:11.852Z,17.56
2018-05-24T22:59:40.192Z,17.62
2018-05-24T23:02:09.321Z,17.69
2018-05-24T23:04:37.792Z,17.62
2018-05-24T23:07:06.132Z,17.54
2018-05-24T23:09:35.363Z,17.51
2018-05-24T23:12:03.735Z,17.47
2018-05-24T23:14:33.260Z,17.32
2018-05-24T23:17:01.619Z,17.13
2018-05-24T23:19:30.001Z,17.05
2018-05-24T23:21:58.365Z,17.07
2018-05-24T23:24:26.723Z,17.03
2018-05-24T23:26:55.810Z,16.92
2018-05-24T23:29:24.564Z,17.04
2018-05-24T23:31:52.922Z,16.96
2018-05-24T23:34:21.297Z,16.94
2018-05-24T23:36:49.612Z,16.81
2018-05-24T23:39:17.944Z,16.78
2018-05-24T23:41:46.300Z,16.63
2018-05-24T23:44:15.387Z,16.61
2018-05-24T23:46:44.520Z,16.59
2018-05-24T23:49:12.884Z,16.61
2018-05-24T23:51:41.243Z,16.62
2018-05-24T23:54:10.315Z,16.54
2018-05-24T23:56:38.680Z,16.38
2018-05-24T23:59:07.844Z,16.48
